createdAt,value
2023-11-23T00:00:00.506Z,59.54785
2023-11-23T00:00:59.367Z,59.72168
2023-11-23T00:01:59.519Z,59.55176
2023-11-23T00:03:00.411Z,60.16406
2023-11-23T00:03:59.412Z,60.09277
2023-11-23T00:05:00.377Z,60.10059
2023-11-23T00:05:59.446Z,60.61621
2023-11-23T00:07:00.450Z,61.03516
2023-11-23T00:07:59.457Z,61.01563
2023-11-23T00:08:59.443Z,61.06738
2023-11-23T00:10:00.401Z,61.16797
2023-11-23T00:10:59.392Z,61.53027
2023-11-23T00:12:00.426Z,61.75488
2023-11-23T00:12:59.401Z,61.61426
2023-11-23T00:13:59.462Z,61.56055
2023-11-23T00:15:00.546Z,61.51172
2023-11-23T00:15:59.412Z,61.11328
2023-11-23T00:17:00.522Z,61.64648
2023-11-23T00:17:59.470Z,62.02637
2023-11-23T00:19:03.091Z,61.5498
2023-11-23T00:20:00.557Z,61.75879
2023-11-23T00:20:59.489Z,61.70605
2023-11-23T00:22:00.408Z,61.62793
2023-11-23T00:23:00.139Z,61.71484
2023-11-23T00:24:00.506Z,61.26367
2023-11-23T00:25:00.421Z,61.28711
2023-11-23T00:25:59.460Z,61.52148
2023-11-23T00:27:00.453Z,61.625
2023-11-23T00:27:59.420Z,61.50391
2023-11-23T00:29:00.609Z,61.52441
2023-11-23T00:30:00.493Z,61.91211
2023-11-23T00:30:59.430Z,61.39453
2023-11-23T00:32:00.477Z,61.54297
2023-11-23T00:32:59.500Z,61.50195
2023-11-23T00:34:00.592Z,61.27734
2023-11-23T00:35:00.480Z,61.44629
2023-11-23T00:36:00.504Z,62.20703
2023-11-23T00:36:59.440Z,62.12695
2023-11-23T00:37:59.501Z,62.0918
2023-11-23T00:39:00.535Z,61.98145
2023-11-23T00:40:00.572Z,62.0293
2023-11-23T00:41:00.447Z,62.02832
2023-11-23T00:41:59.571Z,62.02734
2023-11-23T00:42:59.456Z,61.71484
2023-11-23T00:44:00.533Z,61.81738
2023-11-23T00:45:00.615Z,61.6875
2023-11-23T00:46:00.529Z,61.89746
2023-11-23T00:46:59.503Z,61.83301
2023-11-23T00:48:03.441Z,61.81836
2023-11-23T00:48:59.486Z,61.78516
2023-11-23T00:50:00.529Z,61.90527
2023-11-23T00:51:00.603Z,61.83887
2023-11-23T00:51:59.503Z,61.5791
2023-11-23T00:53:00.475Z,61.81738
2023-11-23T00:53:59.562Z,61.71387
2023-11-23T00:55:00.477Z,61.5625
2023-11-23T00:56:00.478Z,61.80664
2023-11-23T00:56:59.503Z,61.79297
2023-11-23T00:58:02.896Z,62.08789
2023-11-23T00:58:59.485Z,61.93848
2023-11-23T01:00:00.583Z,61.92969
2023-11-23T01:01:00.631Z,61.84766
2023-11-23T01:01:59.603Z,61.72168
2023-11-23T01:03:00.706Z,61.44824
2023-11-23T01:03:59.671Z,61.23633
2023-11-23T01:06:00.559Z,61.92871
2023-11-23T01:06:59.501Z,61.94238
2023-11-23T01:08:00.556Z,61.90527
2023-11-23T01:08:59.537Z,61.94824
2023-11-23T01:10:00.523Z,61.88867
2023-11-23T01:10:59.518Z,62.2334
2023-11-23T01:11:59.654Z,62.44043
2023-11-23T01:13:00.576Z,62.31641
2023-11-23T01:13:59.585Z,62.16602
2023-11-23T01:15:00.589Z,62.5127
2023-11-23T01:15:59.538Z,62.59766
2023-11-23T01:17:03.275Z,62.79297
2023-11-23T01:17:59.639Z,62.48633
2023-11-23T01:18:59.530Z,62.58301
2023-11-23T01:20:00.546Z,62.6582
2023-11-23T01:20:59.585Z,63.02832
2023-11-23T01:22:00.541Z,62.92188
2023-11-23T01:22:59.557Z,62.82715
2023-11-23T01:23:59.608Z,62.80957
2023-11-23T01:25:00.594Z,63.08789
2023-11-23T01:25:59.600Z,63.50781
2023-11-23T01:27:00.666Z,63.54102
2023-11-23T01:27:59.573Z,63.62891
2023-11-23T01:28:59.552Z,63.82129
2023-11-23T01:30:00.595Z,63.60059
2023-11-23T01:30:59.562Z,63.94824
2023-11-23T01:32:00.565Z,63.94727
2023-11-23T01:32:59.653Z,63.81055
2023-11-23T01:34:00.883Z,63.84375
2023-11-23T01:35:00.570Z,63.59961
2023-11-23T01:35:59.654Z,63.85645
2023-11-23T01:37:00.604Z,63.6543
2023-11-23T01:37:59.618Z,63.55957
2023-11-23T01:39:00.624Z,63.58105
2023-11-23T01:40:00.562Z,63.56836
2023-11-23T01:40:59.571Z,63.9209
2023-11-23T01:42:00.635Z,63.80078
2023-11-23T01:42:59.575Z,63.70215
2023-11-23T01:44:00.604Z,63.62988
2023-11-23T01:45:00.686Z,63.4834
2023-11-23T01:46:03.301Z,63.6748
2023-11-23T01:46:59.606Z,63.60645
2023-11-23T01:47:59.659Z,63.58398
2023-11-23T01:49:00.669Z,63.87402
2023-11-23T01:50:00.653Z,63.95313
2023-11-23T01:51:00.664Z,64.16797
2023-11-23T01:51:59.602Z,64.10645
2023-11-23T01:52:59.654Z,64.00195
2023-11-23T01:54:00.691Z,63.97168
2023-11-23T01:55:00.669Z,64.07617
2023-11-23T01:56:00.648Z,64.33398
2023-11-23T01:56:59.687Z,64.34863
2023-11-23T01:57:59.616Z,64.12207
2023-11-23T01:59:00.640Z,64.28027
2023-11-23T02:00:00.721Z,64.23828
2023-11-23T02:01:00.727Z,64.66016
2023-11-23T02:01:59.653Z,64.84082
2023-11-23T02:03:00.766Z,64.69043
2023-11-23T02:03:59.676Z,64.70898
2023-11-23T02:05:00.681Z,64.95605
2023-11-23T02:06:00.729Z,65.42871
2023-11-23T02:06:59.631Z,65.24609
2023-11-23T02:08:00.677Z,65.35352
2023-11-23T02:08:59.738Z,65.41406
2023-11-23T02:10:00.683Z,65.4668
2023-11-23T02:11:00.685Z,65.84375
2023-11-23T02:11:59.682Z,65.75098
2023-11-23T02:13:00.701Z,65.84277
2023-11-23T02:13:59.651Z,65.70117
2023-11-23T02:15:05.475Z,65.8584
2023-11-23T02:15:59.693Z,66.17676
2023-11-23T02:16:59.661Z,66.06152
2023-11-23T02:18:00.768Z,66.00098
2023-11-23T02:18:59.650Z,65.81445
2023-11-23T02:20:00.729Z,66.01563
2023-11-23T02:20:59.684Z,66.24121
2023-11-23T02:21:59.668Z,66.10449
2023-11-23T02:23:00.733Z,66.15234
2023-11-23T02:23:59.700Z,66.08789
2023-11-23T02:25:00.682Z,66.22363
2023-11-23T02:25:59.713Z,66.55859
2023-11-23T02:26:59.729Z,66.44434
2023-11-23T02:28:00.753Z,66.64453
2023-11-23T02:28:59.742Z,66.50684
2023-11-23T02:30:00.830Z,66.64063
2023-11-23T02:30:59.700Z,66.85742
2023-11-23T02:32:00.745Z,66.83496
2023-11-23T02:32:59.783Z,67.04492
2023-11-23T02:33:59.687Z,66.96973
2023-11-23T02:35:00.736Z,67.02539
2023-11-23T02:35:59.824Z,67.46582
2023-11-23T02:37:00.745Z,67.23145
2023-11-23T02:37:59.750Z,67.13477
2023-11-23T02:38:59.727Z,67.17969
2023-11-23T02:40:00.773Z,67.31738
2023-11-23T02:40:59.727Z,67.50293
2023-11-23T02:42:00.905Z,67.36426
2023-11-23T02:42:59.759Z,67.42871
2023-11-23T02:44:03.461Z,67.55664
2023-11-23T02:45:00.839Z,67.54297
2023-11-23T02:45:59.764Z,67.86328
2023-11-23T02:47:00.768Z,67.80078
2023-11-23T02:47:59.813Z,67.89258
2023-11-23T02:49:00.756Z,67.76367
2023-11-23T02:50:00.734Z,68.34375
2023-11-23T02:50:59.732Z,68.48145
2023-11-23T02:52:00.740Z,68.64746
2023-11-23T02:52:59.772Z,68.54883
2023-11-23T02:54:00.810Z,68.37598
2023-11-23T02:55:00.830Z,68.42578
2023-11-23T02:55:59.740Z,68.51367
2023-11-23T02:57:00.768Z,68.24512
2023-11-23T02:57:59.751Z,68.18457
2023-11-23T02:59:00.774Z,68.39844
2023-11-23T03:00:00.802Z,68.36133
2023-11-23T03:01:00.840Z,68.54492
2023-11-23T03:01:59.787Z,68.47559
2023-11-23T03:02:59.802Z,68.67188
2023-11-23T03:04:00.857Z,68.28809
2023-11-23T03:05:00.761Z,68.30273
2023-11-23T03:06:00.860Z,68.58691
2023-11-23T03:06:59.773Z,68.48145
2023-11-23T03:07:59.756Z,68.53613
2023-11-23T03:09:00.881Z,68.3877
2023-11-23T03:10:00.776Z,68.35938
2023-11-23T03:11:00.799Z,68.70215
2023-11-23T03:11:59.837Z,68.59668
2023-11-23T03:13:03.452Z,68.70801
2023-11-23T03:13:59.814Z,68.6377
2023-11-23T03:15:00.797Z,68.75781
2023-11-23T03:16:00.817Z,69.16699
2023-11-23T03:16:59.822Z,69.08594
2023-11-23T03:18:00.930Z,69.0498
2023-11-23T03:18:59.928Z,69.29883
2023-11-23T03:20:00.815Z,69.07031
2023-11-23T03:21:00.852Z,69.59375
2023-11-23T03:21:59.881Z,69.54004
2023-11-23T03:23:00.838Z,69.50293
2023-11-23T03:23:59.865Z,69.66504
2023-11-23T03:25:00.825Z,69.45508
2023-11-23T03:26:00.842Z,70.0459
2023-11-23T03:26:59.929Z,70.11426
2023-11-23T03:28:00.845Z,69.97852
2023-11-23T03:28:59.804Z,69.77637
2023-11-23T03:30:01.016Z,69.84473
2023-11-23T03:30:59.820Z,70.06836
2023-11-23T03:31:59.859Z,70.12598
2023-11-23T03:33:00.858Z,69.81348
2023-11-23T03:33:59.809Z,69.84473
2023-11-23T03:35:00.936Z,69.61035
2023-11-23T03:35:59.858Z,69.73438
2023-11-23T03:36:59.842Z,69.72559
2023-11-23T03:38:00.906Z,70.19336
2023-11-23T03:38:59.861Z,70.15137
2023-11-23T03:40:00.863Z,69.90234
2023-11-23T03:40:59.885Z,70.29785
2023-11-23T03:42:03.974Z,70.3418
2023-11-23T03:42:59.831Z,70.51953
2023-11-23T03:43:59.893Z,70.72168
2023-11-23T03:45:00.966Z,70.44141
2023-11-23T03:45:59.864Z,70.77734
2023-11-23T03:47:00.918Z,70.40918
2023-11-23T03:47:59.931Z,70.44434
2023-11-23T03:48:59.859Z,70.49023
2023-11-23T03:50:00.897Z,70.90723
2023-11-23T03:50:59.962Z,71.16211
2023-11-23T03:52:00.911Z,71.13574
2023-11-23T03:52:59.911Z,70.92188
2023-11-23T03:53:59.964Z,70.75
2023-11-23T03:55:00.898Z,70.625
2023-11-23T03:55:59.915Z,70.65332
2023-11-23T03:57:00.923Z,70.7959
2023-11-23T03:57:59.857Z,70.68164
2023-11-23T03:59:00.934Z,70.53223
2023-11-23T04:00:00.938Z,70.79297
2023-11-23T04:00:59.874Z,70.87891
2023-11-23T04:02:00.988Z,70.65332
2023-11-23T04:02:59.926Z,70.57031
2023-11-23T04:04:00.966Z,70.43262
2023-11-23T04:05:00.900Z,70.31641
2023-11-23T04:05:59.955Z,70.51953
2023-11-23T04:07:00.936Z,70.43457
2023-11-23T04:07:59.965Z,70.43555
2023-11-23T04:09:00.943Z,70.23242
2023-11-23T04:10:00.875Z,70.53613
2023-11-23T04:11:03.704Z,70.80664
2023-11-23T04:11:59.992Z,70.66992
2023-11-23T04:12:59.942Z,70.40234
2023-11-23T04:14:00.964Z,70.30273
2023-11-23T04:16:00.954Z,70.35059
2023-11-23T04:16:59.993Z,70.09277
2023-11-23T04:17:59.980Z,70.32813
2023-11-23T04:19:01.012Z,70.25684
2023-11-23T04:20:00.953Z,70.27344
2023-11-23T04:21:00.983Z,70.47168
2023-11-23T04:21:59.913Z,70.34961
2023-11-23T04:22:59.978Z,70.25
2023-11-23T04:24:01.019Z,70.13574
2023-11-23T04:25:00.976Z,70.10742
2023-11-23T04:26:00.975Z,70.35449
2023-11-23T04:26:59.960Z,70.24512
2023-11-23T04:28:00.981Z,70.06445
2023-11-23T04:28:59.931Z,70.08496
2023-11-23T04:30:00.990Z,69.95215
2023-11-23T04:31:00.940Z,70.14453
2023-11-23T04:31:59.977Z,70.03418
2023-11-23T04:33:01.087Z,70.13184
2023-11-23T04:33:59.988Z,70.15527
2023-11-23T04:35:00.948Z,70.13965
2023-11-23T04:36:00.995Z,70.33105
2023-11-23T04:36:59.950Z,70.08398
2023-11-23T04:38:00.951Z,69.88867
2023-11-23T04:39:00.093Z,69.8457
2023-11-23T04:40:05.356Z,69.92676
2023-11-23T04:41:00.002Z,70.01367
2023-11-23T04:42:00.062Z,69.81738
2023-11-23T04:43:00.949Z,69.93848
2023-11-23T04:43:59.992Z,69.76855
2023-11-23T04:45:01.006Z,69.87891
2023-11-23T04:45:59.982Z,70.04883
2023-11-23T04:46:59.966Z,70.00684
2023-11-23T04:48:01.174Z,69.86719
2023-11-23T04:48:59.980Z,69.97363
2023-11-23T04:50:01.000Z,70.24512
2023-11-23T04:51:00.032Z,70.48242
2023-11-23T04:51:59.987Z,70.26953
2023-11-23T04:53:01.000Z,70.12891
2023-11-23T04:54:00.075Z,69.89355
2023-11-23T04:55:00.984Z,69.93945
2023-11-23T04:55:59.978Z,70
2023-11-23T04:57:02.625Z,70.01465
2023-11-23T04:58:00.018Z,69.87305
2023-11-23T04:58:59.995Z,69.7832
2023-11-23T05:00:01.011Z,69.91211
2023-11-23T05:01:00.029Z,70.11133
2023-11-23T05:02:01.151Z,69.83594
2023-11-23T05:03:00.066Z,69.82031
2023-11-23T05:04:03.018Z,69.90625
2023-11-23T05:05:00.996Z,69.79395
2023-11-23T05:06:00.084Z,69.99609
2023-11-23T05:07:01.074Z,69.7959
2023-11-23T05:08:00.058Z,69.64453
2023-11-23T05:09:08.137Z,69.64453
2023-11-23T05:10:01.066Z,69.61719
2023-11-23T05:11:00.077Z,69.98535
2023-11-23T05:12:01.063Z,69.74707
2023-11-23T05:13:00.051Z,69.62988
2023-11-23T05:14:01.080Z,69.63965
2023-11-23T05:15:01.069Z,69.70605
2023-11-23T05:16:00.032Z,70.0332
2023-11-23T05:17:01.158Z,69.94629
2023-11-23T05:18:00.118Z,69.72168
2023-11-23T05:19:01.111Z,69.7627
2023-11-23T05:20:01.181Z,69.69336
2023-11-23T05:21:00.133Z,70.01465
2023-11-23T05:22:01.030Z,69.78613
2023-11-23T05:23:00.104Z,69.90527
2023-11-23T05:24:03.720Z,69.84375
2023-11-23T05:25:01.071Z,69.77344
2023-11-23T05:26:01.088Z,69.89844
2023-11-23T05:27:00.134Z,69.73535
2023-11-23T05:28:00.070Z,69.90332
2023-11-23T05:29:01.137Z,69.79492
2023-11-23T05:30:01.091Z,69.68066
2023-11-23T05:31:01.094Z,69.87207
2023-11-23T05:32:00.051Z,69.71387
2023-11-23T05:33:00.111Z,69.67969
2023-11-23T05:34:01.133Z,69.50879
2023-11-23T05:35:14.994Z,69.97852
2023-11-23T05:36:01.099Z,70.13574
2023-11-23T05:37:00.075Z,70.00293
2023-11-23T05:38:03.696Z,69.87207
2023-11-23T05:39:00.200Z,69.99023
2023-11-23T05:40:01.222Z,69.97754
2023-11-23T05:41:01.075Z,70.19141
2023-11-23T05:42:00.163Z,70.08105
2023-11-23T05:43:05.684Z,70.01953
2023-11-23T05:44:00.095Z,69.91211
2023-11-23T05:45:01.126Z,69.97363
2023-11-23T05:46:01.125Z,70.41113
2023-11-23T05:47:00.185Z,70.25488
2023-11-23T05:48:01.288Z,70.08301
2023-11-23T05:49:00.107Z,70.5459
2023-11-23T05:50:01.100Z,70.49023
2023-11-23T05:51:01.158Z,70.62891
2023-11-23T05:52:00.116Z,70.56641
2023-11-23T05:53:01.156Z,70.47754
2023-11-23T05:54:00.172Z,70.20703
2023-11-23T05:55:01.158Z,70.2334
2023-11-23T05:56:00.163Z,70.44727
2023-11-23T05:57:00.138Z,70.375
2023-11-23T05:58:01.197Z,70.25488
2023-11-23T05:59:00.239Z,70.12305
2023-11-23T06:00:01.203Z,70.24316
2023-11-23T06:01:07.665Z,70.43066
2023-11-23T06:02:01.173Z,70.21387
2023-11-23T06:03:01.274Z,70.08691
2023-11-23T06:04:00.350Z,69.94336
2023-11-23T06:05:01.497Z,69.97949
2023-11-23T06:06:00.155Z,70.21289
2023-11-23T06:07:04.184Z,70.0752
2023-11-23T06:08:00.193Z,70.03125
2023-11-23T06:09:00.252Z,70.11816
2023-11-23T06:10:01.219Z,70.00586
2023-11-23T06:11:00.220Z,70.33301
2023-11-23T06:12:01.192Z,70.26367
2023-11-23T06:13:00.161Z,70.02344
2023-11-23T06:14:00.169Z,69.81934
2023-11-23T06:15:01.421Z,70.04688
2023-11-23T06:16:00.236Z,70.38379
2023-11-23T06:17:01.165Z,70.62109
2023-11-23T06:18:07.758Z,70.69043
2023-11-23T06:19:03.767Z,70.33203
2023-11-23T06:20:01.397Z,70.11816
2023-11-23T06:21:00.247Z,70.34766
2023-11-23T06:22:01.187Z,70.09668
2023-11-23T06:23:00.204Z,70.05273
2023-11-23T06:24:02.983Z,69.86914
2023-11-23T06:25:01.473Z,70.08203
2023-11-23T06:26:00.233Z,70.29395
2023-11-23T06:27:01.224Z,70.1543
2023-11-23T06:28:12.327Z,69.90723
2023-11-23T06:29:01.231Z,69.95215
2023-11-23T06:30:01.685Z,69.96582
2023-11-23T06:31:00.216Z,70.4043
2023-11-23T06:32:02.931Z,70.28613
2023-11-23T06:33:00.414Z,70.16406
2023-11-23T06:34:01.258Z,70.03809
2023-11-23T06:35:01.546Z,70.22852
2023-11-23T06:36:04.056Z,70.44238
2023-11-23T06:37:00.215Z,70.27832
2023-11-23T06:38:00.251Z,70.01953
2023-11-23T06:39:01.290Z,70.01953
2023-11-23T06:40:01.704Z,70.01563
2023-11-23T06:41:01.267Z,70.32324
2023-11-23T06:42:00.399Z,70.0791
2023-11-23T06:43:00.213Z,69.85059
2023-11-23T06:44:01.222Z,69.62305
2023-11-23T06:45:01.787Z,69.68066
2023-11-23T06:46:01.302Z,70.05469
2023-11-23T06:47:00.225Z,70.01563
2023-11-23T06:48:00.306Z,69.80078
2023-11-23T06:49:01.585Z,69.71191
2023-11-23T06:50:01.780Z,69.83691
2023-11-23T06:51:01.227Z,70.14453
2023-11-23T06:52:00.233Z,70.03125
2023-11-23T06:53:02.879Z,70.08398
2023-11-23T06:54:00.358Z,69.94434
2023-11-23T06:55:01.848Z,69.97461
2023-11-23T06:56:01.296Z,70.19727
2023-11-23T06:57:00.358Z,70.24512
2023-11-23T06:58:01.291Z,69.99512
2023-11-23T06:59:00.295Z,69.94238
2023-11-23T07:00:01.958Z,70.02734
2023-11-23T07:01:01.287Z,69.94727
2023-11-23T07:02:00.366Z,69.76465
2023-11-23T07:03:01.354Z,69.70801
2023-11-23T07:04:00.332Z,69.57031
2023-11-23T07:05:06.495Z,69.71973
2023-11-23T07:06:00.322Z,69.85449
2023-11-23T07:07:00.277Z,69.53223
2023-11-23T07:08:01.261Z,69.36133
2023-11-23T07:09:00.461Z,69.15332
2023-11-23T07:10:01.933Z,69.36328
2023-11-23T07:11:00.324Z,69.56738
2023-11-23T07:12:00.359Z,69.51465
2023-11-23T07:13:01.324Z,69.51758
2023-11-23T07:14:00.281Z,69.32129
2023-11-23T07:15:02.353Z,69.39355
2023-11-23T07:16:00.295Z,69.55957
2023-11-23T07:17:00.334Z,69.42188
2023-11-23T07:18:01.494Z,69.35352
2023-11-23T07:19:00.349Z,69.26953
2023-11-23T07:20:02.219Z,69.47168
2023-11-23T07:21:00.458Z,69.55664
2023-11-23T07:22:01.307Z,69.57031
2023-11-23T07:23:00.340Z,69.55664
2023-11-23T07:24:00.408Z,69.49219
2023-11-23T07:25:02.364Z,69.66211
2023-11-23T07:26:00.354Z,69.78613
2023-11-23T07:27:01.379Z,69.70313
2023-11-23T07:28:00.313Z,69.55273
2023-11-23T07:29:00.370Z,69.41895
2023-11-23T07:30:02.520Z,69.52734
2023-11-23T07:31:00.341Z,69.71289
2023-11-23T07:32:01.395Z,69.52344
2023-11-23T07:33:00.414Z,69.33984
2023-11-23T07:34:04.054Z,69.25391
2023-11-23T07:36:01.344Z,69.75488
2023-11-23T07:37:01.372Z,69.4668
2023-11-23T07:38:00.333Z,69.27148
2023-11-23T07:39:01.408Z,69.18652
2023-11-23T07:40:02.525Z,69.19238
2023-11-23T07:41:00.441Z,69.28418
2023-11-23T07:42:01.467Z,69.10254
2023-11-23T07:43:00.351Z,68.97168
2023-11-23T07:44:01.355Z,68.77832
2023-11-23T07:45:02.641Z,68.89551
2023-11-23T07:46:00.354Z,68.98438
2023-11-23T07:47:01.371Z,68.89648
2023-11-23T07:48:00.385Z,69.08008
2023-11-23T07:49:01.390Z,69.12891
2023-11-23T07:50:02.734Z,69.10547
2023-11-23T07:51:01.476Z,69.16406
2023-11-23T07:52:00.364Z,69.0127
2023-11-23T07:53:00.422Z,68.85059
2023-11-23T07:54:01.419Z,68.88379
2023-11-23T07:55:02.865Z,68.99805
2023-11-23T07:56:01.372Z,69.24512
2023-11-23T07:57:00.440Z,69.10254
2023-11-23T07:58:00.425Z,69.09863
2023-11-23T07:59:01.409Z,69.50684
2023-11-23T08:00:03.301Z,69.95801
2023-11-23T08:01:01.425Z,69.75098
2023-11-23T08:02:00.393Z,69.65137
2023-11-23T08:03:04.220Z,69.43652
2023-11-23T08:04:00.557Z,69.32617
2023-11-23T08:05:03.124Z,69.32031
2023-11-23T08:06:01.452Z,69.4248
2023-11-23T08:07:00.602Z,69.16602
2023-11-23T08:08:01.434Z,68.99121
2023-11-23T08:09:00.466Z,68.86328
2023-11-23T08:10:03.079Z,68.97852
2023-11-23T08:11:01.408Z,69.07422
2023-11-23T08:12:00.496Z,68.98242
2023-11-23T08:13:01.405Z,68.7998
2023-11-23T08:14:00.439Z,68.78418
2023-11-23T08:15:03.234Z,68.9082
2023-11-23T08:16:01.434Z,69.07617
2023-11-23T08:17:00.481Z,69.14063
2023-11-23T08:18:07.553Z,69.2041
2023-11-23T08:19:00.432Z,69.02246
2023-11-23T08:20:03.278Z,68.96191
2023-11-23T08:21:00.559Z,69.08691
2023-11-23T08:22:00.434Z,68.94922
2023-11-23T08:23:01.490Z,68.72949
2023-11-23T08:24:00.468Z,68.73047
2023-11-23T08:25:03.295Z,68.82227
2023-11-23T08:26:00.465Z,68.88184
2023-11-23T08:27:00.516Z,68.62793
2023-11-23T08:28:01.469Z,68.66699
2023-11-23T08:29:00.478Z,68.71484
2023-11-23T08:30:03.597Z,68.77051
2023-11-23T08:31:00.484Z,68.91992
2023-11-23T08:32:08.526Z,68.6416
2023-11-23T08:33:00.681Z,68.49219
2023-11-23T08:34:00.447Z,68.40527
2023-11-23T08:35:03.534Z,68.51172
2023-11-23T08:36:00.478Z,68.59863
2023-11-23T08:37:01.501Z,68.31152
2023-11-23T08:38:00.468Z,68.18359
2023-11-23T08:39:00.598Z,68.00977
2023-11-23T08:40:03.675Z,68.28613
2023-11-23T08:41:00.505Z,68.21191
2023-11-23T08:42:01.533Z,68.16113
2023-11-23T08:43:00.473Z,67.91699
2023-11-23T08:44:00.502Z,67.83398
2023-11-23T08:45:04.149Z,68.07813
2023-11-23T08:46:00.474Z,68.2002
2023-11-23T08:47:01.575Z,68.10449
2023-11-23T08:48:00.560Z,67.8125
2023-11-23T08:49:01.489Z,67.83398
2023-11-23T08:50:00.533Z,67.93555
2023-11-23T08:51:03.140Z,67.9043
2023-11-23T08:52:01.500Z,67.69824
2023-11-23T08:53:00.487Z,67.85742
2023-11-23T08:54:01.555Z,67.72852
2023-11-23T08:55:00.488Z,67.78125
2023-11-23T08:56:01.544Z,68.08496
2023-11-23T08:57:01.577Z,67.9043
2023-11-23T08:58:00.524Z,67.70117
2023-11-23T08:59:01.545Z,67.7168
2023-11-23T09:00:00.634Z,68.08301
2023-11-23T09:01:04.168Z,67.96094
2023-11-23T09:02:05.706Z,67.77246
2023-11-23T09:03:00.658Z,67.77734
2023-11-23T09:04:01.708Z,67.58105
2023-11-23T09:05:00.619Z,67.75195
2023-11-23T09:06:01.617Z,67.91699
2023-11-23T09:07:00.565Z,67.79102
2023-11-23T09:08:00.517Z,67.66016
2023-11-23T09:09:01.636Z,67.59473
2023-11-23T09:10:00.534Z,67.7998
2023-11-23T09:11:01.530Z,67.99805
2023-11-23T09:12:00.563Z,67.8584
2023-11-23T09:13:00.526Z,67.70898
2023-11-23T09:14:01.569Z,67.68359
2023-11-23T09:15:00.680Z,67.86426
2023-11-23T09:16:01.586Z,67.92383
2023-11-23T09:17:00.619Z,67.77441
2023-11-23T09:18:01.686Z,67.66797
2023-11-23T09:19:00.664Z,67.62207
2023-11-23T09:20:00.552Z,67.95313
2023-11-23T09:21:01.963Z,68.16406
2023-11-23T09:22:00.563Z,67.99609
2023-11-23T09:23:01.571Z,68.08301
2023-11-23T09:24:00.664Z,68.18848
2023-11-23T09:25:00.559Z,68.19434
2023-11-23T09:26:01.566Z,68.49121
2023-11-23T09:27:00.662Z,68.1748
2023-11-23T09:28:01.609Z,68.14844
2023-11-23T09:29:00.567Z,68.19043
2023-11-23T09:30:11.753Z,68.33008
2023-11-23T09:31:00.583Z,68.42188
2023-11-23T09:32:00.725Z,68.15039
2023-11-23T09:33:01.707Z,68.09668
2023-11-23T09:34:00.623Z,67.95508
2023-11-23T09:35:01.637Z,68.18848
2023-11-23T09:36:01.689Z,68.48438
2023-11-23T09:37:00.638Z,68.38184
2023-11-23T09:38:01.642Z,68.15332
2023-11-23T09:39:00.634Z,68.04395
2023-11-23T09:40:01.588Z,68.16895
2023-11-23T09:41:01.677Z,68.38086
2023-11-23T09:42:00.699Z,68.31836
2023-11-23T09:43:01.622Z,68.14648
2023-11-23T09:44:00.597Z,67.95898
2023-11-23T09:45:01.634Z,69.1377
2023-11-23T09:46:01.749Z,68.85059
2023-11-23T09:47:01.694Z,68.5166
2023-11-23T09:48:00.713Z,68.33301
2023-11-23T09:49:00.608Z,68.2041
2023-11-23T09:50:01.624Z,68.46582
2023-11-23T09:51:01.727Z,68.9707
2023-11-23T09:52:01.646Z,68.85352
2023-11-23T09:53:00.661Z,68.90527
2023-11-23T09:54:00.712Z,68.6123
2023-11-23T09:55:01.735Z,68.65332
2023-11-23T09:56:01.702Z,69.15527
2023-11-23T09:57:02.657Z,68.97168
2023-11-23T09:58:00.638Z,69.15625
2023-11-23T09:59:04.411Z,69.23828
2023-11-23T10:00:00.802Z,69.12402
2023-11-23T10:01:01.762Z,69.63965
2023-11-23T10:02:01.908Z,69.26367
2023-11-23T10:03:00.770Z,69.04688
2023-11-23T10:04:01.843Z,69.30566
2023-11-23T10:05:00.663Z,69.47754
2023-11-23T10:06:01.664Z,69.57031
2023-11-23T10:07:01.671Z,69.36621
2023-11-23T10:08:00.667Z,69.13379
2023-11-23T10:09:01.722Z,69.07324
2023-11-23T10:10:00.662Z,69.0293
2023-11-23T10:11:01.659Z,69.44727
2023-11-23T10:12:01.724Z,69.27051
2023-11-23T10:13:00.666Z,68.95801
2023-11-23T10:14:01.707Z,68.93848
2023-11-23T10:15:02.203Z,69.45898
2023-11-23T10:16:01.756Z,69.31152
2023-11-23T10:17:00.687Z,68.8252
2023-11-23T10:18:00.763Z,68.94629
2023-11-23T10:19:01.778Z,68.8291
2023-11-23T10:20:00.682Z,68.7207
2023-11-23T10:21:01.750Z,68.99902
2023-11-23T10:22:01.332Z,68.95605
2023-11-23T10:23:00.748Z,68.7168
2023-11-23T10:24:01.737Z,68.61914
2023-11-23T10:25:00.686Z,68.71191
2023-11-23T10:26:02.113Z,69.0752
2023-11-23T10:27:00.719Z,68.87012
2023-11-23T10:28:04.772Z,68.63477
2023-11-23T10:29:00.776Z,68.53613
2023-11-23T10:30:00.724Z,68.54004
2023-11-23T10:31:01.752Z,68.69824
2023-11-23T10:32:01.072Z,68.53223
2023-11-23T10:33:01.943Z,68.49414
2023-11-23T10:34:00.886Z,68.27246
2023-11-23T10:35:00.714Z,68.4668
2023-11-23T10:36:01.717Z,69.01465
2023-11-23T10:37:00.728Z,68.71094
2023-11-23T10:38:01.714Z,68.67871
2023-11-23T10:39:00.808Z,68.62305
2023-11-23T10:40:00.732Z,68.52344
2023-11-23T10:41:01.737Z,68.79004
2023-11-23T10:42:00.986Z,68.66016
2023-11-23T10:43:01.780Z,68.97656
2023-11-23T10:44:00.787Z,68.81641
2023-11-23T10:45:03.736Z,69.0127
2023-11-23T10:46:01.786Z,69.0918
2023-11-23T10:47:00.737Z,69.00879
2023-11-23T10:48:01.870Z,68.87891
2023-11-23T10:49:00.790Z,69.08203
2023-11-23T10:50:01.782Z,69.3623
2023-11-23T10:51:01.806Z,69.40039
2023-11-23T10:52:00.750Z,69.14844
2023-11-23T10:53:01.769Z,69.25098
2023-11-23T10:54:00.766Z,69.03125
2023-11-23T10:55:01.823Z,69.32031
2023-11-23T10:56:01.802Z,69.70313
2023-11-23T10:57:07.762Z,69.70508
2023-11-23T10:58:00.761Z,69.55371
2023-11-23T10:59:00.818Z,69.79199
2023-11-23T11:00:01.876Z,69.71484
2023-11-23T11:01:01.777Z,69.81738
2023-11-23T11:02:01.835Z,69.62598
2023-11-23T11:03:00.795Z,69.59375
2023-11-23T11:04:01.009Z,69.2793
2023-11-23T11:05:01.825Z,69.14258
2023-11-23T11:06:01.829Z,69.32324
2023-11-23T11:07:01.824Z,69.08203
2023-11-23T11:08:00.832Z,69.07031
2023-11-23T11:09:00.858Z,69.00684
2023-11-23T11:10:01.817Z,69.19727
2023-11-23T11:11:01.815Z,69.35645
2023-11-23T11:12:02.213Z,69.56543
2023-11-23T11:13:00.792Z,69.41309
2023-11-23T11:14:04.160Z,69.65234
2023-11-23T11:15:00.920Z,69.47559
2023-11-23T11:16:01.831Z,69.57129
2023-11-23T11:17:01.797Z,69.48535
2023-11-23T11:18:00.985Z,69.28809
2023-11-23T11:19:01.854Z,69.06055
2023-11-23T11:20:00.822Z,69.31641
2023-11-23T11:21:01.827Z,69.47656
2023-11-23T11:22:01.854Z,69.33301
2023-11-23T11:23:00.861Z,69.24316
2023-11-23T11:24:01.926Z,69.18359
2023-11-23T11:25:00.819Z,69.16211
2023-11-23T11:26:10.725Z,69.4248
2023-11-23T11:27:00.860Z,69.38477
2023-11-23T11:28:00.834Z,69.51074
2023-11-23T11:29:01.860Z,69.34277
2023-11-23T11:30:00.881Z,69.52051
2023-11-23T11:31:08.895Z,69.52051
2023-11-23T11:32:00.823Z,69.57129
2023-11-23T11:33:00.920Z,69.2832
2023-11-23T11:34:01.900Z,69.28223
2023-11-23T11:35:00.864Z,69.34473
2023-11-23T11:36:01.868Z,69.6377
2023-11-23T11:37:00.848Z,69.32129
2023-11-23T11:38:00.905Z,69.19922
2023-11-23T11:39:01.937Z,69.04297
2023-11-23T11:40:00.853Z,69.12891
2023-11-23T11:41:01.863Z,69.26074
2023-11-23T11:42:01.346Z,69.10156
2023-11-23T11:43:01.886Z,68.96387
2023-11-23T11:44:00.978Z,68.83398
2023-11-23T11:45:00.890Z,69.01953
2023-11-23T11:46:01.915Z,69.42578
2023-11-23T11:47:00.922Z,69.30176
2023-11-23T11:48:02.060Z,69.04004
2023-11-23T11:49:00.921Z,68.95898